sensor_id;sensor_type;location;lat;lon;timestamp;P1;durP1;ratioP1;P2;durP2;ratioP2
7773;SDS011;3931;42.260;23.116;2023-07-08T00:00:01;12.40;;;11.10;;
7773;SDS011;3931;42.260;23.116;2023-07-08T00:02:35;15.77;;;12.10;;
7773;SDS011;3931;42.260;23.116;2023-07-08T00:05:01;15.30;;;10.83;;
7773;SDS011;3931;42.260;23.116;2023-07-08T00:07:28;15.40;;;10.80;;
7773;SDS011;3931;42.260;23.116;2023-07-08T00:09:54;17.33;;;12.47;;
7773;SDS011;3931;42.260;23.116;2023-07-08T00:12:20;13.43;;;11.10;;
7773;SDS011;3931;42.260;23.116;2023-07-08T00:14:46;16.03;;;12.73;;
7773;SDS011;3931;42.260;23.116;2023-07-08T00:17:12;16.47;;;11.50;;
7773;SDS011;3931;42.260;23.116;2023-07-08T00:19:38;16.90;;;12.60;;
7773;SDS011;3931;42.260;23.116;2023-07-08T00:22:07;14.73;;;10.13;;
7773;SDS011;3931;42.260;23.116;2023-07-08T00:24:37;16.60;;;11.90;;
7773;SDS011;3931;42.260;23.116;2023-07-08T00:27:03;16.57;;;12.10;;
7773;SDS011;3931;42.260;23.116;2023-07-08T00:29:29;18.07;;;12.37;;
7773;SDS011;3931;42.260;23.116;2023-07-08T00:31:55;15.80;;;9.90;;
7773;SDS011;3931;42.260;23.116;2023-07-08T00:34:21;14.63;;;10.53;;
7773;SDS011;3931;42.260;23.116;2023-07-08T00:36:48;13.40;;;10.80;;
7773;SDS011;3931;42.260;23.116;2023-07-08T00:39:14;16.37;;;11.40;;
7773;SDS011;3931;42.260;23.116;2023-07-08T00:41:41;14.30;;;11.67;;
7773;SDS011;3931;42.260;23.116;2023-07-08T00:44:09;17.07;;;12.07;;
7773;SDS011;3931;42.260;23.116;2023-07-08T00:46:40;12.53;;;10.67;;
7773;SDS011;3931;42.260;23.116;2023-07-08T00:54:44;13.60;;;10.47;;
7773;SDS011;3931;42.260;23.116;2023-07-08T00:57:11;14.17;;;10.90;;
7773;SDS011;3931;42.260;23.116;2023-07-08T00:59:38;14.60;;;11.27;;
7773;SDS011;3931;42.260;23.116;2023-07-08T01:02:09;18.70;;;10.47;;
7773;SDS011;3931;42.260;23.116;2023-07-08T01:04:39;16.90;;;11.03;;
7773;SDS011;3931;42.260;23.116;2023-07-08T01:07:09;12.60;;;9.90;;
7773;SDS011;3931;42.260;23.116;2023-07-08T01:09:36;15.87;;;11.10;;
7773;SDS011;3931;42.260;23.116;2023-07-08T01:12:07;15.80;;;10.53;;
7773;SDS011;3931;42.260;23.116;2023-07-08T01:14:37;10.50;;;8.70;;
7773;SDS011;3931;42.260;23.116;2023-07-08T01:17:07;12.83;;;9.87;;
7773;SDS011;3931;42.260;23.116;2023-07-08T01:19:39;18.27;;;10.43;;
7773;SDS011;3931;42.260;23.116;2023-07-08T01:22:06;13.37;;;10.30;;
7773;SDS011;3931;42.260;23.116;2023-07-08T01:24:33;19.47;;;10.80;;
7773;SDS011;3931;42.260;23.116;2023-07-08T01:27:02;12.13;;;9.80;;
7773;SDS011;3931;42.260;23.116;2023-07-08T01:29:31;16.23;;;11.80;;
7773;SDS011;3931;42.260;23.116;2023-07-08T01:31:58;15.80;;;10.33;;
7773;SDS011;3931;42.260;23.116;2023-07-08T01:34:27;19.73;;;11.10;;
7773;SDS011;3931;42.260;23.116;2023-07-08T01:36:54;12.43;;;10.33;;
7773;SDS011;3931;42.260;23.116;2023-07-08T01:39:23;15.63;;;10.37;;
7773;SDS011;3931;42.260;23.116;2023-07-08T01:41:50;12.70;;;10.87;;
7773;SDS011;3931;42.260;23.116;2023-07-08T01:44:25;19.63;;;11.63;;
7773;SDS011;3931;42.260;23.116;2023-07-08T01:46:53;18.10;;;10.90;;
7773;SDS011;3931;42.260;23.116;2023-07-08T01:49:23;16.57;;;11.47;;
7773;SDS011;3931;42.260;23.116;2023-07-08T01:51:50;14.10;;;11.53;;
7773;SDS011;3931;42.260;23.116;2023-07-08T01:54:16;17.40;;;10.93;;
7773;SDS011;3931;42.260;23.116;2023-07-08T01:56:43;13.30;;;10.87;;
7773;SDS011;3931;42.260;23.116;2023-07-08T01:59:09;15.37;;;10.13;;
7773;SDS011;3931;42.260;23.116;2023-07-08T02:01:38;14.27;;;11.00;;
7773;SDS011;3931;42.260;23.116;2023-07-08T02:04:04;19.00;;;12.80;;
7773;SDS011;3931;42.260;23.116;2023-07-08T02:06:30;15.60;;;11.50;;
7773;SDS011;3931;42.260;23.116;2023-07-08T02:08:56;19.43;;;11.53;;
7773;SDS011;3931;42.260;23.116;2023-07-08T02:11:24;19.13;;;11.67;;
7773;SDS011;3931;42.260;23.116;2023-07-08T02:13:51;18.00;;;10.43;;
7773;SDS011;3931;42.260;23.116;2023-07-08T02:16:17;15.20;;;11.70;;
7773;SDS011;3931;42.260;23.116;2023-07-08T02:18:43;15.30;;;11.33;;
7773;SDS011;3931;42.260;23.116;2023-07-08T02:21:09;19.90;;;11.97;;
7773;SDS011;3931;42.260;23.116;2023-07-08T02:23:35;22.73;;;11.60;;
7773;SDS011;3931;42.260;23.116;2023-07-08T02:26:01;14.40;;;11.03;;
7773;SDS011;3931;42.260;23.116;2023-07-08T02:28:27;21.13;;;11.20;;
7773;SDS011;3931;42.260;23.116;2023-07-08T02:30:54;16.63;;;11.53;;
7773;SDS011;3931;42.260;23.116;2023-07-08T02:33:20;13.47;;;11.50;;
7773;SDS011;3931;42.260;23.116;2023-07-08T02:35:57;17.90;;;11.00;;
7773;SDS011;3931;42.260;23.116;2023-07-08T02:38:24;17.47;;;10.40;;
7773;SDS011;3931;42.260;23.116;2023-07-08T02:40:50;13.97;;;10.97;;
7773;SDS011;3931;42.260;23.116;2023-07-08T02:43:16;19.90;;;11.43;;
7773;SDS011;3931;42.260;23.116;2023-07-08T02:45:42;14.37;;;11.67;;
7773;SDS011;3931;42.260;23.116;2023-07-08T02:48:09;13.70;;;11.53;;
7773;SDS011;3931;42.260;23.116;2023-07-08T02:50:35;19.33;;;11.00;;
7773;SDS011;3931;42.260;23.116;2023-07-08T02:53:01;17.93;;;11.60;;
7773;SDS011;3931;42.260;23.116;2023-07-08T02:55:28;22.00;;;10.73;;
7773;SDS011;3931;42.260;23.116;2023-07-08T02:57:54;14.77;;;11.00;;
7773;SDS011;3931;42.260;23.116;2023-07-08T03:00:20;13.60;;;11.67;;
7773;SDS011;3931;42.260;23.116;2023-07-08T03:02:46;14.50;;;11.53;;
7773;SDS011;3931;42.260;23.116;2023-07-08T03:05:12;14.03;;;11.10;;
7773;SDS011;3931;42.260;23.116;2023-07-08T03:07:39;13.93;;;10.20;;
7773;SDS011;3931;42.260;23.116;2023-07-08T03:10:05;14.27;;;10.57;;
7773;SDS011;3931;42.260;23.116;2023-07-08T03:12:31;14.10;;;11.50;;
7773;SDS011;3931;42.260;23.116;2023-07-08T03:14:57;22.23;;;11.70;;
7773;SDS011;3931;42.260;23.116;2023-07-08T03:17:23;13.37;;;10.47;;
7773;SDS011;3931;42.260;23.116;2023-07-08T03:19:49;23.63;;;11.40;;
7773;SDS011;3931;42.260;23.116;2023-07-08T03:22:16;16.30;;;11.80;;
7773;SDS011;3931;42.260;23.116;2023-07-08T03:24:43;21.00;;;11.60;;
7773;SDS011;3931;42.260;23.116;2023-07-08T03:27:11;14.03;;;10.87;;
7773;SDS011;3931;42.260;23.116;2023-07-08T03:29:37;17.53;;;11.17;;
7773;SDS011;3931;42.260;23.116;2023-07-08T03:32:04;16.30;;;10.97;;
7773;SDS011;3931;42.260;23.116;2023-07-08T03:34:31;17.80;;;11.73;;
7773;SDS011;3931;42.260;23.116;2023-07-08T03:36:57;15.93;;;11.87;;
7773;SDS011;3931;42.260;23.116;2023-07-08T03:39:24;17.00;;;11.93;;
7773;SDS011;3931;42.260;23.116;2023-07-08T03:41:51;22.30;;;11.80;;
7773;SDS011;3931;42.260;23.116;2023-07-08T03:44:17;18.20;;;12.70;;
7773;SDS011;3931;42.260;23.116;2023-07-08T03:46:44;24.63;;;12.40;;
7773;SDS011;3931;42.260;23.116;2023-07-08T03:49:10;17.63;;;12.13;;
7773;SDS011;3931;42.260;23.116;2023-07-08T03:51:37;28.13;;;11.40;;
7773;SDS011;3931;42.260;23.116;2023-07-08T03:54:05;18.07;;;12.50;;
7773;SDS011;3931;42.260;23.116;2023-07-08T03:56:34;15.00;;;11.13;;
7773;SDS011;3931;42.260;23.116;2023-07-08T03:59:00;15.87;;;12.57;;
7773;SDS011;3931;42.260;23.116;2023-07-08T04:01:26;22.93;;;11.70;;
7773;SDS011;3931;42.260;23.116;2023-07-08T04:03:53;12.70;;;10.13;;
7773;SDS011;3931;42.260;23.116;2023-07-08T04:06:21;15.57;;;11.50;;
7773;SDS011;3931;42.260;23.116;2023-07-08T04:08:48;19.03;;;12.10;;
7773;SDS011;3931;42.260;23.116;2023-07-08T04:11:16;18.93;;;11.17;;
7773;SDS011;3931;42.260;23.116;2023-07-08T04:13:44;13.00;;;10.87;;
7773;SDS011;3931;42.260;23.116;2023-07-08T04:16:13;18.30;;;11.50;;
7773;SDS011;3931;42.260;23.116;2023-07-08T04:18:42;19.00;;;11.40;;
7773;SDS011;3931;42.260;23.116;2023-07-08T04:21:08;15.33;;;9.90;;
7773;SDS011;3931;42.260;23.116;2023-07-08T04:23:34;10.20;;;8.63;;
7773;SDS011;3931;42.260;23.116;2023-07-08T04:26:01;12.20;;;8.30;;
7773;SDS011;3931;42.260;23.116;2023-07-08T04:28:27;10.00;;;8.10;;
7773;SDS011;3931;42.260;23.116;2023-07-08T04:30:54;13.27;;;9.10;;
7773;SDS011;3931;42.260;23.116;2023-07-08T04:33:20;14.40;;;10.40;;
7773;SDS011;3931;42.260;23.116;2023-07-08T04:35:46;16.20;;;10.00;;
7773;SDS011;3931;42.260;23.116;2023-07-08T04:38:14;13.43;;;9.30;;
7773;SDS011;3931;42.260;23.116;2023-07-08T04:40:43;15.40;;;10.07;;
7773;SDS011;3931;42.260;23.116;2023-07-08T04:43:09;14.60;;;10.10;;
7773;SDS011;3931;42.260;23.116;2023-07-08T04:45:37;10.33;;;8.73;;
7773;SDS011;3931;42.260;23.116;2023-07-08T04:48:04;12.77;;;9.50;;
7773;SDS011;3931;42.260;23.116;2023-07-08T04:50:37;17.33;;;10.00;;
7773;SDS011;3931;42.260;23.116;2023-07-08T04:53:04;14.57;;;9.80;;
7773;SDS011;3931;42.260;23.116;2023-07-08T04:55:30;21.20;;;10.23;;
7773;SDS011;3931;42.260;23.116;2023-07-08T04:57:56;11.90;;;9.50;;
7773;SDS011;3931;42.260;23.116;2023-07-08T05:00:22;14.83;;;10.23;;
7773;SDS011;3931;42.260;23.116;2023-07-08T05:02:49;21.20;;;10.30;;
7773;SDS011;3931;42.260;23.116;2023-07-08T05:05:15;11.90;;;10.53;;
7773;SDS011;3931;42.260;23.116;2023-07-08T05:07:42;10.80;;;8.67;;
7773;SDS011;3931;42.260;23.116;2023-07-08T05:10:08;13.27;;;9.47;;
7773;SDS011;3931;42.260;23.116;2023-07-08T05:12:35;17.33;;;10.07;;
7773;SDS011;3931;42.260;23.116;2023-07-08T05:15:01;15.63;;;9.70;;
7773;SDS011;3931;42.260;23.116;2023-07-08T05:17:29;13.10;;;10.17;;
7773;SDS011;3931;42.260;23.116;2023-07-08T05:19:55;21.27;;;10.27;;
7773;SDS011;3931;42.260;23.116;2023-07-08T05:22:23;18.07;;;11.10;;
7773;SDS011;3931;42.260;23.116;2023-07-08T05:24:50;14.50;;;11.33;;
7773;SDS011;3931;42.260;23.116;2023-07-08T05:27:17;13.77;;;10.10;;
7773;SDS011;3931;42.260;23.116;2023-07-08T05:29:43;11.27;;;10.07;;
7773;SDS011;3931;42.260;23.116;2023-07-08T05:32:09;14.20;;;10.47;;
7773;SDS011;3931;42.260;23.116;2023-07-08T05:34:35;16.27;;;12.00;;
7773;SDS011;3931;42.260;23.116;2023-07-08T05:37:01;19.07;;;10.27;;
7773;SDS011;3931;42.260;23.116;2023-07-08T05:39:29;19.30;;;12.57;;
7773;SDS011;3931;42.260;23.116;2023-07-08T05:41:56;16.67;;;11.47;;
7773;SDS011;3931;42.260;23.116;2023-07-08T05:44:22;13.73;;;10.77;;
7773;SDS011;3931;42.260;23.116;2023-07-08T05:46:48;21.50;;;10.40;;
7773;SDS011;3931;42.260;23.116;2023-07-08T05:49:14;20.93;;;12.03;;
7773;SDS011;3931;42.260;23.116;2023-07-08T05:51:41;15.10;;;11.90;;
7773;SDS011;3931;42.260;23.116;2023-07-08T05:54:08;17.50;;;11.50;;
7773;SDS011;3931;42.260;23.116;2023-07-08T05:56:35;15.60;;;9.57;;
7773;SDS011;3931;42.260;23.116;2023-07-08T05:59:01;14.83;;;8.70;;
7773;SDS011;3931;42.260;23.116;2023-07-08T06:01:28;26.37;;;8.63;;
7773;SDS011;3931;42.260;23.116;2023-07-08T06:03:55;16.70;;;9.13;;
7773;SDS011;3931;42.260;23.116;2023-07-08T06:06:23;10.97;;;8.40;;
7773;SDS011;3931;42.260;23.116;2023-07-08T06:08:49;10.20;;;8.27;;
7773;SDS011;3931;42.260;23.116;2023-07-08T06:11:15;9.60;;;8.07;;
7773;SDS011;3931;42.260;23.116;2023-07-08T06:13:42;10.37;;;7.20;;
7773;SDS011;3931;42.260;23.116;2023-07-08T06:16:08;8.90;;;7.07;;
7773;SDS011;3931;42.260;23.116;2023-07-08T06:18:34;13.03;;;8.10;;
7773;SDS011;3931;42.260;23.116;2023-07-08T06:21:01;12.03;;;7.23;;
7773;SDS011;3931;42.260;23.116;2023-07-08T06:23:27;14.17;;;7.83;;
7773;SDS011;3931;42.260;23.116;2023-07-08T06:25:54;12.07;;;7.03;;
7773;SDS011;3931;42.260;23.116;2023-07-08T06:28:20;16.33;;;7.60;;
7773;SDS011;3931;42.260;23.116;2023-07-08T06:30:47;9.50;;;8.00;;
7773;SDS011;3931;42.260;23.116;2023-07-08T06:33:13;10.43;;;7.73;;
7773;SDS011;3931;42.260;23.116;2023-07-08T06:35:40;11.60;;;7.80;;
7773;SDS011;3931;42.260;23.116;2023-07-08T06:38:06;10.70;;;7.90;;
7773;SDS011;3931;42.260;23.116;2023-07-08T06:40:33;15.10;;;7.07;;
7773;SDS011;3931;42.260;23.116;2023-07-08T06:42:59;8.40;;;6.83;;
7773;SDS011;3931;42.260;23.116;2023-07-08T06:45:25;12.70;;;7.60;;
7773;SDS011;3931;42.260;23.116;2023-07-08T06:47:52;13.87;;;7.70;;
7773;SDS011;3931;42.260;23.116;2023-07-08T06:50:18;11.63;;;7.37;;
7773;SDS011;3931;42.260;23.116;2023-07-08T06:52:44;11.63;;;7.13;;
7773;SDS011;3931;42.260;23.116;2023-07-08T06:55:10;12.70;;;7.93;;
7773;SDS011;3931;42.260;23.116;2023-07-08T06:57:37;12.00;;;7.63;;
7773;SDS011;3931;42.260;23.116;2023-07-08T07:00:04;9.47;;;6.77;;
7773;SDS011;3931;42.260;23.116;2023-07-08T07:02:31;9.57;;;7.43;;
7773;SDS011;3931;42.260;23.116;2023-07-08T07:04:57;12.43;;;7.77;;
7773;SDS011;3931;42.260;23.116;2023-07-08T07:07:23;12.53;;;7.73;;
7773;SDS011;3931;42.260;23.116;2023-07-08T07:09:50;10.60;;;6.93;;
7773;SDS011;3931;42.260;23.116;2023-07-08T07:12:16;10.57;;;7.73;;
7773;SDS011;3931;42.260;23.116;2023-07-08T07:14:42;11.13;;;7.20;;
7773;SDS011;3931;42.260;23.116;2023-07-08T07:17:08;10.97;;;7.27;;
7773;SDS011;3931;42.260;23.116;2023-07-08T07:19:34;11.57;;;7.77;;
7773;SDS011;3931;42.260;23.116;2023-07-08T07:22:01;9.30;;;7.33;;
7773;SDS011;3931;42.260;23.116;2023-07-08T07:24:28;10.97;;;6.37;;
7773;SDS011;3931;42.260;23.116;2023-07-08T07:26:54;11.57;;;7.07;;
7773;SDS011;3931;42.260;23.116;2023-07-08T07:29:21;9.80;;;6.20;;
7773;SDS011;3931;42.260;23.116;2023-07-08T07:31:48;11.33;;;6.97;;
7773;SDS011;3931;42.260;23.116;2023-07-08T07:34:14;8.80;;;6.87;;
7773;SDS011;3931;42.260;23.116;2023-07-08T07:36:40;10.23;;;6.30;;
7773;SDS011;3931;42.260;23.116;2023-07-08T07:39:07;11.77;;;6.93;;
7773;SDS011;3931;42.260;23.116;2023-07-08T07:41:33;11.60;;;6.90;;
7773;SDS011;3931;42.260;23.116;2023-07-08T07:43:59;10.20;;;7.50;;
7773;SDS011;3931;42.260;23.116;2023-07-08T07:46:25;8.30;;;6.87;;
7773;SDS011;3931;42.260;23.116;2023-07-08T07:48:51;18.03;;;6.80;;
7773;SDS011;3931;42.260;23.116;2023-07-08T07:51:17;11.97;;;6.93;;
7773;SDS011;3931;42.260;23.116;2023-07-08T07:53:43;11.73;;;6.87;;
7773;SDS011;3931;42.260;23.116;2023-07-08T07:56:10;10.87;;;7.27;;
7773;SDS011;3931;42.260;23.116;2023-07-08T07:58:36;9.70;;;6.80;;
7773;SDS011;3931;42.260;23.116;2023-07-08T08:01:02;15.00;;;6.60;;
7773;SDS011;3931;42.260;23.116;2023-07-08T08:03:28;13.33;;;6.80;;
7773;SDS011;3931;42.260;23.116;2023-07-08T08:05:54;8.50;;;6.57;;
7773;SDS011;3931;42.260;23.116;2023-07-08T08:08:20;10.33;;;6.97;;
7773;SDS011;3931;42.260;23.116;2023-07-08T08:10:47;7.47;;;6.60;;
7773;SDS011;3931;42.260;23.116;2023-07-08T08:13:14;10.53;;;6.37;;
7773;SDS011;3931;42.260;23.116;2023-07-08T08:15:40;9.33;;;6.47;;
7773;SDS011;3931;42.260;23.116;2023-07-08T08:18:06;9.53;;;6.73;;
7773;SDS011;3931;42.260;23.116;2023-07-08T08:20:32;10.67;;;6.67;;
7773;SDS011;3931;42.260;23.116;2023-07-08T08:22:58;8.77;;;6.87;;
7773;SDS011;3931;42.260;23.116;2023-07-08T08:25:24;10.33;;;6.90;;
7773;SDS011;3931;42.260;23.116;2023-07-08T08:27:50;8.90;;;6.97;;
7773;SDS011;3931;42.260;23.116;2023-07-08T08:30:18;9.33;;;6.60;;
7773;SDS011;3931;42.260;23.116;2023-07-08T08:32:44;7.63;;;6.53;;
7773;SDS011;3931;42.260;23.116;2023-07-08T08:35:10;9.73;;;6.40;;
7773;SDS011;3931;42.260;23.116;2023-07-08T08:37:36;9.80;;;7.23;;
7773;SDS011;3931;42.260;23.116;2023-07-08T08:40:02;10.73;;;7.33;;
7773;SDS011;3931;42.260;23.116;2023-07-08T08:42:30;8.60;;;5.80;;
7773;SDS011;3931;42.260;23.116;2023-07-08T08:45:00;7.83;;;5.80;;
7773;SDS011;3931;42.260;23.116;2023-07-08T08:47:31;8.63;;;6.37;;
7773;SDS011;3931;42.260;23.116;2023-07-08T08:50:02;10.30;;;6.17;;
7773;SDS011;3931;42.260;23.116;2023-07-08T08:52:40;6.83;;;6.10;;
7773;SDS011;3931;42.260;23.116;2023-07-08T08:55:08;10.10;;;6.70;;
7773;SDS011;3931;42.260;23.116;2023-07-08T08:57:37;8.00;;;6.50;;
7773;SDS011;3931;42.260;23.116;2023-07-08T09:00:09;7.63;;;5.80;;
7773;SDS011;3931;42.260;23.116;2023-07-08T09:02:43;8.17;;;6.87;;
7773;SDS011;3931;42.260;23.116;2023-07-08T09:05:19;7.37;;;6.27;;
7773;SDS011;3931;42.260;23.116;2023-07-08T09:07:47;9.30;;;6.33;;
7773;SDS011;3931;42.260;23.116;2023-07-08T09:10:29;8.50;;;6.63;;
7773;SDS011;3931;42.260;23.116;2023-07-08T09:13:05;10.10;;;6.00;;
7773;SDS011;3931;42.260;23.116;2023-07-08T09:15:39;6.93;;;5.33;;
7773;SDS011;3931;42.260;23.116;2023-07-08T09:18:11;7.27;;;5.37;;
7773;SDS011;3931;42.260;23.116;2023-07-08T09:20:43;11.80;;;5.70;;
7773;SDS011;3931;42.260;23.116;2023-07-08T09:23:11;8.97;;;5.80;;
7773;SDS011;3931;42.260;23.116;2023-07-08T09:25:47;5.90;;;5.10;;
7773;SDS011;3931;42.260;23.116;2023-07-08T09:28:18;11.37;;;4.70;;
7773;SDS011;3931;42.260;23.116;2023-07-08T09:30:45;9.27;;;5.50;;
7773;SDS011;3931;42.260;23.116;2023-07-08T09:33:13;7.40;;;4.70;;
7773;SDS011;3931;42.260;23.116;2023-07-08T09:35:40;8.30;;;4.63;;
7773;SDS011;3931;42.260;23.116;2023-07-08T09:38:08;4.30;;;3.70;;
7773;SDS011;3931;42.260;23.116;2023-07-08T09:40:38;5.40;;;4.53;;
7773;SDS011;3931;42.260;23.116;2023-07-08T09:43:13;6.20;;;4.40;;
7773;SDS011;3931;42.260;23.116;2023-07-08T09:45:46;4.40;;;3.77;;
7773;SDS011;3931;42.260;23.116;2023-07-08T09:48:15;9.17;;;4.40;;
7773;SDS011;3931;42.260;23.116;2023-07-08T09:50:43;5.80;;;4.10;;
7773;SDS011;3931;42.260;23.116;2023-07-08T09:53:17;5.87;;;4.13;;
7773;SDS011;3931;42.260;23.116;2023-07-08T09:55:43;8.47;;;3.93;;
7773;SDS011;3931;42.260;23.116;2023-07-08T09:58:10;4.47;;;3.90;;
7773;SDS011;3931;42.260;23.116;2023-07-08T10:00:39;6.20;;;4.03;;
7773;SDS011;3931;42.260;23.116;2023-07-08T10:03:09;9.70;;;3.87;;
7773;SDS011;3931;42.260;23.116;2023-07-08T10:05:43;5.00;;;4.10;;
7773;SDS011;3931;42.260;23.116;2023-07-08T10:08:13;4.90;;;3.80;;
7773;SDS011;3931;42.260;23.116;2023-07-08T10:10:41;7.27;;;5.10;;
7773;SDS011;3931;42.260;23.116;2023-07-08T10:13:11;10.90;;;4.30;;
7773;SDS011;3931;42.260;23.116;2023-07-08T10:15:46;7.63;;;4.00;;
7773;SDS011;3931;42.260;23.116;2023-07-08T10:18:15;4.40;;;3.60;;
7773;SDS011;3931;42.260;23.116;2023-07-08T10:20:54;4.03;;;3.30;;
7773;SDS011;3931;42.260;23.116;2023-07-08T10:23:39;5.03;;;3.83;;
7773;SDS011;3931;42.260;23.116;2023-07-08T10:26:15;8.07;;;3.53;;
7773;SDS011;3931;42.260;23.116;2023-07-08T10:28:54;6.00;;;4.00;;
7773;SDS011;3931;42.260;23.116;2023-07-08T10:31:35;4.13;;;3.50;;
7773;SDS011;3931;42.260;23.116;2023-07-08T10:34:13;6.40;;;3.97;;
7773;SDS011;3931;42.260;23.116;2023-07-08T10:36:51;7.47;;;2.72;;
7773;SDS011;3931;42.260;23.116;2023-07-08T10:39:30;7.18;;;3.60;;
7773;SDS011;3931;42.260;23.116;2023-07-08T10:42:12;4.72;;;3.20;;
7773;SDS011;3931;42.260;23.116;2023-07-08T10:44:52;6.78;;;3.22;;
7773;SDS011;3931;42.260;23.116;2023-07-08T10:47:33;5.47;;;2.90;;
7773;SDS011;3931;42.260;23.116;2023-07-08T10:50:14;5.43;;;3.25;;
7773;SDS011;3931;42.260;23.116;2023-07-08T10:53:02;6.00;;;3.33;;
7773;SDS011;3931;42.260;23.116;2023-07-08T10:55:45;5.63;;;3.33;;
7773;SDS011;3931;42.260;23.116;2023-07-08T10:58:23;6.95;;;3.35;;
7773;SDS011;3931;42.260;23.116;2023-07-08T11:01:04;6.82;;;3.63;;
7773;SDS011;3931;42.260;23.116;2023-07-08T11:03:51;4.60;;;3.78;;
7773;SDS011;3931;42.260;23.116;2023-07-08T11:06:45;3.30;;;2.92;;
7773;SDS011;3931;42.260;23.116;2023-07-08T11:09:17;4.35;;;3.20;;
7773;SDS011;3931;42.260;23.116;2023-07-08T11:11:50;6.35;;;3.63;;
7773;SDS011;3931;42.260;23.116;2023-07-08T11:14:20;6.80;;;2.95;;
7773;SDS011;3931;42.260;23.116;2023-07-08T11:16:52;4.68;;;3.13;;
7773;SDS011;3931;42.260;23.116;2023-07-08T11:19:24;6.07;;;2.88;;
7773;SDS011;3931;42.260;23.116;2023-07-08T11:21:57;4.50;;;2.85;;
7773;SDS011;3931;42.260;23.116;2023-07-08T11:24:30;3.75;;;3.03;;
7773;SDS011;3931;42.260;23.116;2023-07-08T11:27:01;3.17;;;2.88;;
7773;SDS011;3931;42.260;23.116;2023-07-08T11:29:35;6.70;;;3.00;;
7773;SDS011;3931;42.260;23.116;2023-07-08T11:32:05;5.60;;;3.20;;
7773;SDS011;3931;42.260;23.116;2023-07-08T11:34:37;4.50;;;3.10;;
7773;SDS011;3931;42.260;23.116;2023-07-08T11:37:05;7.28;;;3.80;;
7773;SDS011;3931;42.260;23.116;2023-07-08T11:39:39;4.57;;;3.45;;
7773;SDS011;3931;42.260;23.116;2023-07-08T11:42:17;11.20;;;3.85;;
7773;SDS011;3931;42.260;23.116;2023-07-08T11:44:47;3.42;;;3.10;;
7773;SDS011;3931;42.260;23.116;2023-07-08T11:47:19;6.32;;;3.20;;
7773;SDS011;3931;42.260;23.116;2023-07-08T11:49:50;5.60;;;2.92;;
7773;SDS011;3931;42.260;23.116;2023-07-08T11:52:19;6.60;;;2.75;;
7773;SDS011;3931;42.260;23.116;2023-07-08T11:54:48;5.30;;;3.42;;
7773;SDS011;3931;42.260;23.116;2023-07-08T11:57:24;8.18;;;3.35;;
7773;SDS011;3931;42.260;23.116;2023-07-08T12:00:15;4.03;;;2.90;;
7773;SDS011;3931;42.260;23.116;2023-07-08T12:02:47;4.68;;;2.58;;
7773;SDS011;3931;42.260;23.116;2023-07-08T12:05:15;4.65;;;3.60;;
7773;SDS011;3931;42.260;23.116;2023-07-08T12:07:42;6.43;;;3.17;;
7773;SDS011;3931;42.260;23.116;2023-07-08T12:10:13;8.02;;;3.20;;
7773;SDS011;3931;42.260;23.116;2023-07-08T12:12:43;3.60;;;2.92;;
7773;SDS011;3931;42.260;23.116;2023-07-08T12:15:11;5.15;;;3.72;;
7773;SDS011;3931;42.260;23.116;2023-07-08T12:17:41;7.88;;;3.47;;
7773;SDS011;3931;42.260;23.116;2023-07-08T12:20:13;3.42;;;2.72;;
7773;SDS011;3931;42.260;23.116;2023-07-08T12:22:43;3.65;;;3.13;;
7773;SDS011;3931;42.260;23.116;2023-07-08T12:25:10;5.38;;;3.58;;
7773;SDS011;3931;42.260;23.116;2023-07-08T12:27:41;4.45;;;3.78;;
7773;SDS011;3931;42.260;23.116;2023-07-08T12:30:08;4.75;;;3.38;;
7773;SDS011;3931;42.260;23.116;2023-07-08T12:32:36;5.15;;;4.15;;
7773;SDS011;3931;42.260;23.116;2023-07-08T12:35:02;4.03;;;3.00;;
7773;SDS011;3931;42.260;23.116;2023-07-08T12:37:31;3.47;;;3.05;;
7773;SDS011;3931;42.260;23.116;2023-07-08T12:39:57;5.85;;;3.40;;
7773;SDS011;3931;42.260;23.116;2023-07-08T12:42:29;3.33;;;3.03;;
7773;SDS011;3931;42.260;23.116;2023-07-08T12:44:56;3.70;;;3.17;;
7773;SDS011;3931;42.260;23.116;2023-07-08T12:47:22;6.32;;;3.50;;
7773;SDS011;3931;42.260;23.116;2023-07-08T12:49:48;6.40;;;3.58;;
7773;SDS011;3931;42.260;23.116;2023-07-08T12:52:19;4.43;;;3.50;;
7773;SDS011;3931;42.260;23.116;2023-07-08T12:54:46;3.72;;;3.38;;
7773;SDS011;3931;42.260;23.116;2023-07-08T12:57:12;5.85;;;3.70;;
7773;SDS011;3931;42.260;23.116;2023-07-08T12:59:40;4.15;;;3.55;;
7773;SDS011;3931;42.260;23.116;2023-07-08T13:02:09;7.93;;;3.55;;
7773;SDS011;3931;42.260;23.116;2023-07-08T13:04:41;3.00;;;2.70;;
7773;SDS011;3931;42.260;23.116;2023-07-08T13:07:08;5.88;;;3.08;;
7773;SDS011;3931;42.260;23.116;2023-07-08T13:09:47;6.57;;;3.65;;
7773;SDS011;3931;42.260;23.116;2023-07-08T13:12:15;3.85;;;3.30;;
7773;SDS011;3931;42.260;23.116;2023-07-08T13:14:43;4.10;;;3.38;;
7773;SDS011;3931;42.260;23.116;2023-07-08T13:17:12;5.63;;;3.53;;
7773;SDS011;3931;42.260;23.116;2023-07-08T13:19:39;7.90;;;3.30;;
7773;SDS011;3931;42.260;23.116;2023-07-08T13:22:08;5.03;;;3.15;;
7773;SDS011;3931;42.260;23.116;2023-07-08T13:24:38;7.75;;;3.47;;
7773;SDS011;3931;42.260;23.116;2023-07-08T13:27:06;6.53;;;3.67;;
7773;SDS011;3931;42.260;23.116;2023-07-08T13:29:38;13.98;;;3.65;;
7773;SDS011;3931;42.260;23.116;2023-07-08T13:32:05;5.30;;;3.65;;
7773;SDS011;3931;42.260;23.116;2023-07-08T13:34:35;5.75;;;3.05;;
7773;SDS011;3931;42.260;23.116;2023-07-08T13:37:01;6.50;;;3.20;;
7773;SDS011;3931;42.260;23.116;2023-07-08T13:39:29;4.13;;;3.08;;
7773;SDS011;3931;42.260;23.116;2023-07-08T13:41:58;8.50;;;3.42;;
7773;SDS011;3931;42.260;23.116;2023-07-08T13:44:25;5.18;;;3.63;;
7773;SDS011;3931;42.260;23.116;2023-07-08T13:46:53;4.68;;;3.55;;
7773;SDS011;3931;42.260;23.116;2023-07-08T13:49:24;5.13;;;3.58;;
7773;SDS011;3931;42.260;23.116;2023-07-08T13:52:03;7.00;;;3.55;;
7773;SDS011;3931;42.260;23.116;2023-07-08T13:54:32;4.63;;;3.42;;
7773;SDS011;3931;42.260;23.116;2023-07-08T13:57:03;8.32;;;3.35;;
7773;SDS011;3931;42.260;23.116;2023-07-08T13:59:35;4.63;;;3.33;;
7773;SDS011;3931;42.260;23.116;2023-07-08T14:02:01;4.40;;;3.43;;
7773;SDS011;3931;42.260;23.116;2023-07-08T14:04:39;4.93;;;3.65;;
7773;SDS011;3931;42.260;23.116;2023-07-08T14:07:07;3.75;;;3.22;;
7773;SDS011;3931;42.260;23.116;2023-07-08T14:09:39;3.95;;;3.30;;
7773;SDS011;3931;42.260;23.116;2023-07-08T14:12:05;4.28;;;3.20;;
7773;SDS011;3931;42.260;23.116;2023-07-08T14:14:32;5.50;;;3.55;;
7773;SDS011;3931;42.260;23.116;2023-07-08T14:16:58;8.07;;;3.63;;
7773;SDS011;3931;42.260;23.116;2023-07-08T14:19:25;4.72;;;3.40;;
7773;SDS011;3931;42.260;23.116;2023-07-08T14:21:55;4.38;;;3.55;;
7773;SDS011;3931;42.260;23.116;2023-07-08T14:24:22;9.85;;;3.00;;
7773;SDS011;3931;42.260;23.116;2023-07-08T14:26:49;4.03;;;3.30;;
7773;SDS011;3931;42.260;23.116;2023-07-08T14:29:15;5.55;;;3.28;;
7773;SDS011;3931;42.260;23.116;2023-07-08T14:31:41;5.22;;;2.90;;
7773;SDS011;3931;42.260;23.116;2023-07-08T14:34:08;5.88;;;3.50;;
7773;SDS011;3931;42.260;23.116;2023-07-08T14:36:36;7.20;;;3.13;;
7773;SDS011;3931;42.260;23.116;2023-07-08T14:39:09;4.45;;;2.92;;
7773;SDS011;3931;42.260;23.116;2023-07-08T14:41:38;4.82;;;3.60;;
7773;SDS011;3931;42.260;23.116;2023-07-08T14:44:08;5.10;;;3.22;;
7773;SDS011;3931;42.260;23.116;2023-07-08T14:46:44;11.88;;;4.00;;
7773;SDS011;3931;42.260;23.116;2023-07-08T14:49:11;4.97;;;3.25;;
7773;SDS011;3931;42.260;23.116;2023-07-08T14:51:41;5.32;;;4.13;;
7773;SDS011;3931;42.260;23.116;2023-07-08T14:54:07;8.40;;;2.90;;
7773;SDS011;3931;42.260;23.116;2023-07-08T14:56:34;4.65;;;3.42;;
7773;SDS011;3931;42.260;23.116;2023-07-08T14:59:00;5.75;;;3.28;;
7773;SDS011;3931;42.260;23.116;2023-07-08T15:01:26;7.03;;;3.25;;